»·PEaware :: WAT234 KPDX-KBFI

WAT234 :: KPDX-KBFI

FLIGHT INFORMATION

Flight Status: Arrived
Operator:
Walker Air Transport
More flights by this operator :: More flights under this callsign
Pilot: Eduardo Elias G. (24838)
Aircraft: SOCATA TBM-900
(TBM9)
More flights by this aircraft type
Origin: KPDX Portland Intl
United States
Destination: KBFI Boeing Field/King Co Intl
United States
More flights between these airports :: More routes between these airports
Route: BTG OLM2
File this flight plan on PilotEdge
Remarks:
Altitude:
(Current/Filed)
22,000ft
Speed:
(Current/Filed)
260kts
Departed: 06-Sep-20 08:48 PM
Arrived: 06-Sep-20 09:28 PM
Distance/Time
Traveled:
117nm/0:40
Distance/Time
To Go:
Arrived

Flight Plot

Page will automatically refresh every two minutes.


Map Options




Map Legend


Flown Route
Filed Route
Departure Airport
Arrival Airport
Navaid (VOR, NDB)
Fix

Horizontal Profiles

Position Reports

Time Latitude Longitude Heading Altitude Ground
Speed
06-Sep-20 20:11 45.587120 -122.582674 209 20ft 0kts
06-Sep-20 20:12 45.587120 -122.582674 209 20ft 0kts
06-Sep-20 20:13 45.587120 -122.582674 209 20ft 0kts
06-Sep-20 20:14 45.587120 -122.582674 209 20ft 0kts
06-Sep-20 20:15 45.587120 -122.582674 209 20ft 0kts
06-Sep-20 20:16 45.587120 -122.582674 209 20ft 0kts
06-Sep-20 20:17 45.587120 -122.582674 209 19ft 0kts
06-Sep-20 20:18 45.587121 -122.582674 209 19ft 0kts
06-Sep-20 20:19 45.587121 -122.582674 209 19ft 0kts
06-Sep-20 20:20 45.587121 -122.582674 209 19ft 0kts
06-Sep-20 20:21 45.587121 -122.582674 209 19ft 0kts
06-Sep-20 20:22 45.587121 -122.582674 209 19ft 0kts
06-Sep-20 20:23 45.587121 -122.582674 209 19ft 0kts
06-Sep-20 20:24 45.587121 -122.582674 209 19ft 0kts
06-Sep-20 20:25 45.587121 -122.582674 209 19ft 0kts
06-Sep-20 20:26 45.587120 -122.582674 209 19ft 0kts
06-Sep-20 20:27 45.587120 -122.582674 209 19ft 0kts
06-Sep-20 20:28 45.587120 -122.582674 209 19ft 0kts
06-Sep-20 20:29 45.587120 -122.582674 209 19ft 0kts
06-Sep-20 20:30 45.587120 -122.582674 209 19ft 0kts
06-Sep-20 20:31 45.587120 -122.582674 209 19ft 0kts
06-Sep-20 20:32 45.587062 -122.581960 39 19ft 7kts
06-Sep-20 20:33 45.586576 -122.578442 28 19ft 5kts
06-Sep-20 20:34 45.585364 -122.574646 119 19ft 19kts
06-Sep-20 20:35 45.582968 -122.568447 116 19ft 8kts
06-Sep-20 20:36 45.582902 -122.568273 119 19ft 0kts
06-Sep-20 20:37 45.582902 -122.568273 119 19ft 0kts
06-Sep-20 20:38 45.582719 -122.567719 96 19ft 0kts
06-Sep-20 20:39 45.582719 -122.567719 96 19ft 0kts
06-Sep-20 20:40 45.582719 -122.567719 96 19ft 0kts
06-Sep-20 20:41 45.582719 -122.567716 97 19ft 0kts
06-Sep-20 20:42 45.582751 -122.567372 62 19ft 0kts
06-Sep-20 20:43 45.582751 -122.567372 62 19ft 0kts
06-Sep-20 20:44 45.582751 -122.567372 62 19ft 0kts
06-Sep-20 20:45 45.582751 -122.567372 62 19ft 0kts
06-Sep-20 20:46 45.583778 -122.567369 299 19ft 15kts
06-Sep-20 20:47 45.597446 -122.601380 308 1633ft 117kts
06-Sep-20 20:48 45.622502 -122.638064 314 3934ft 134kts
06-Sep-20 20:49 45.647802 -122.676290 314 6511ft 137kts
06-Sep-20 20:50 45.676657 -122.720025 314 8654ft 151kts
06-Sep-20 20:51 45.713363 -122.745512 353 10718ft 158kts
06-Sep-20 20:52 45.758619 -122.749806 351 12921ft 165kts
06-Sep-20 20:53 45.806438 -122.755519 350 15146ft 171kts
06-Sep-20 20:54 45.855080 -122.761485 350 17119ft 178kts
06-Sep-20 20:55 45.905666 -122.767744 350 19213ft 183kts
06-Sep-20 20:56 45.958414 -122.774251 351 21106ft 188kts
06-Sep-20 20:57 46.015186 -122.781252 351 22168ft 218kts
06-Sep-20 20:58 46.081415 -122.789485 352 22150ft 241kts
06-Sep-20 20:59 46.154226 -122.798536 352 22172ft 248kts
06-Sep-20 21:00 46.224608 -122.807309 352 22195ft 251kts
06-Sep-20 21:01 46.294347 -122.816021 352 22202ft 252kts
06-Sep-20 21:02 46.365109 -122.824867 352 21484ft 254kts
06-Sep-20 21:03 46.434261 -122.833557 351 20372ft 245kts
06-Sep-20 21:04 46.501579 -122.842038 351 19304ft 241kts
06-Sep-20 21:05 46.568030 -122.850429 350 18247ft 239kts
06-Sep-20 21:06 46.635082 -122.858916 350 17178ft 237kts
06-Sep-20 21:07 46.702793 -122.867517 350 16096ft 236kts
06-Sep-20 21:08 46.769264 -122.875962 350 15034ft 234kts
06-Sep-20 21:09 46.835303 -122.884390 350 13977ft 233kts
06-Sep-20 21:11 46.899920 -122.892636 350 12945ft 232kts
06-Sep-20 21:12 46.964034 -122.900631 354 11999ft 228kts
06-Sep-20 21:13 47.015721 -122.845696 33 11993ft 222kts
06-Sep-20 21:14 47.066977 -122.800897 348 12008ft 195kts
06-Sep-20 21:15 47.120220 -122.781499 25 12007ft 212kts
06-Sep-20 21:16 47.174462 -122.730779 25 12008ft 245kts
06-Sep-20 21:17 47.234350 -122.675713 25 11563ft 272kts
06-Sep-20 21:18 47.294770 -122.622534 25 8962ft 232kts
06-Sep-20 21:19 47.351689 -122.575394 25 6225ft 219kts
06-Sep-20 21:20 47.408570 -122.530847 25 3419ft 213kts
06-Sep-20 21:21 47.452266 -122.497149 24 2953ft 125kts
06-Sep-20 21:22 47.490876 -122.466831 25 3017ft 181kts
06-Sep-20 21:23 47.534037 -122.430149 34 3082ft 143kts
06-Sep-20 21:24 47.554967 -122.394210 55 2058ft 103kts
06-Sep-20 21:25 47.565656 -122.360321 67 1047ft 93kts
06-Sep-20 21:26 47.559184 -122.327025 147 345ft 92kts
06-Sep-20 21:27 47.536523 -122.307948 151 22ft 86kts
06-Sep-20 21:27 47.529718 -122.303650 236 13ft 0kts
06-Sep-20 21:29 47.526853 -122.301322 150 14ft 31kts
06-Sep-20 21:29 47.521227 -122.296593 147 15ft 20kts

Navigation Log

Ident Type
Flight plan parsing failed, navigation log unavailable